• Join FlightAware (Why Join?)
  • Login
  • US Flag 
08:18PM EDT


 

Airport Tracker/Info


-or-


 

Live Flight TrackerFlight Track Log ✈ SWA558 ✈ 11-Jun-2013 ✈ KLIT - KPHX

Flight Track Log - Related Links

Times and Time Zones

All times are in EDT time to prevent confusion due to time zone crossing. See the SWA558 flight status page for this flight to view local times or setup timezone preferences in your user account.

Time Position Orientation Groundspeed Altitude Reporting Facility
EDT Latitude Longitude Course Direction KTS MPH feet Rate Location/Type
08:37AM 34.7156 -92.2519 262° West 152 175 1,300  Level Memphis Center
08:37AM 34.7131 -92.2747 262° West 149 171 2,100 1,500 Climbing Memphis Center
08:38AM 34.7203 -92.3456 277° West 231 266 3,600 2,100 Climbing Memphis Center
08:40AM 34.7431 -92.4953 281° West 267 307 8,100 2,460 Climbing Memphis Center
08:41AM 34.7578 -92.5942 280° West 284 327 10,600 2,400 Climbing Memphis Center
08:42AM 34.7725 -92.7108 279° West 320 368 12,900 2,640 Climbing Memphis Center
08:43AM 34.7908 -92.8353 280° West 356 410 15,900 2,700 Climbing Memphis Center
08:44AM 34.8069 -92.9647 279° West 380 437 18,400 2,580 Climbing Memphis Center
08:45AM 34.8272 -93.0969 281° West 393 452 21,100 2,400 Climbing Memphis Center
08:46AM 34.8450 -93.2317 279° West 399 459 23,300 2,100 Climbing Memphis Center
08:47AM 34.8644 -93.3767 279° West 421 484 25,300 1,980 Climbing Memphis Center
08:48AM 34.8839 -93.5242 279° West 433 498 27,300 1,860 Climbing Memphis Center
08:49AM 34.9050 -93.6742 280° West 445 512 29,100 1,860 Climbing Memphis Center
08:50AM 34.9258 -93.8269 279° West 450 518 31,100 1,860 Climbing Memphis Center
08:51AM 34.9425 -93.9747 278° West 450 518 32,900 1,440 Climbing Memphis Center
08:52AM 34.9625 -94.1403 278° West 450 518 34,000 1,020 Climbing Memphis Center
08:53AM 34.9831 -94.2906 280° West 450 518 35,000 480 Climbing Memphis Center
08:54AM 35.0011 -94.4411 278° West 450 518 35,000  Level Memphis Center
08:55AM 35.0211 -94.5917 279° West 450 518 35,000  Level Memphis Center
08:56AM 35.0369 -94.6953 281° West 451 519 35,000  Level Fort Worth Center
08:57AM 35.0547 -94.8469 278° West 451 519 35,000 420 Level Fort Worth Center
08:58AM 35.0722 -94.9986 278° West 451 519 35,900 1,200 Climbing Fort Worth Center
08:59AM 35.0814 -95.1556 274° West 451 519 37,400 1,020 Climbing Fort Worth Center
09:00AM 35.0881 -95.3025 273° West 451 519 38,000 300 Climbing Fort Worth Center
09:01AM 35.0947 -95.4444 273° West 439 505 38,000  Level Fort Worth Center
09:02AM 35.1031 -95.5939 274° West 439 505 38,000  Level Fort Worth Center
09:03AM 35.1072 -95.7411 272° West 439 505 38,000  Level Fort Worth Center
09:04AM 35.1150 -95.8553 275° West 439 505 38,000  Level Fort Worth Center
09:05AM 35.1192 -96.0278 272° West 434 499 38,000  Level Fort Worth Center
09:06AM 35.1247 -96.1722 273° West 434 499 38,000  Level Fort Worth Center
09:07AM 35.1303 -96.3169 273° West 434 499 38,000  Level Fort Worth Center
09:08AM 35.1356 -96.4617 273° West 434 499 38,000  Level Fort Worth Center
09:09AM 35.1408 -96.6036 273° West 429 494 38,000  Level Fort Worth Center
09:10AM 35.1458 -96.7483 272° West 429 494 38,000  Level Fort Worth Center
09:11AM 35.1508 -96.8931 272° West 429 494 38,000  Level Fort Worth Center
09:12AM 35.1553 -97.0353 272° West 423 487 38,000  Level Fort Worth Center
09:13AM 35.1578 -97.1825 271° West 423 487 38,000  Level Fort Worth Center
09:14AM 35.1622 -97.3297 272° West 428 493 38,000  Level Fort Worth Center
09:15AM 35.1664 -97.4769 272° West 433 498 38,000  Level Fort Worth Center
09:16AM 35.1744 -97.6042 274° West 438 504 38,000  Level Fort Worth Center
09:17AM 35.1783 -97.7489 272° West 438 504 38,000  Level Fort Worth Center
09:18AM 35.1822 -97.8936 272° West 438 504 38,000  Level Fort Worth Center
09:19AM 35.1878 -98.0358 273° West 426 490 38,000  Level Fort Worth Center
09:20AM 35.1911 -98.1756 272° West 420 483 38,000  Level Fort Worth Center
09:21AM 35.1944 -98.3206 272° West 420 483 38,000  Level Fort Worth Center
09:22AM 35.1994 -98.4653 272° West 420 483 38,000  Level Fort Worth Center
09:23AM 35.2022 -98.6153 271° West 420 483 38,000  Level Fort Worth Center
09:24AM 35.2050 -98.7628 271° West 425 489 38,000  Level Fort Worth Center
09:25AM 35.2075 -98.9075 271° West 431 496 38,000  Level Fort Worth Center
09:26AM 35.2119 -99.0550 272° West 431 496 38,000  Level Fort Worth Center
09:27AM 35.2119 -99.1972 270° West 431 496 38,000  Level Fort Worth Center
09:28AM 35.2139 -99.3447 271° West 431 496 38,000  Level Fort Worth Center
09:28AM 35.2164 -99.3978 273° West 428 493 38,000  Level Albuquerque Center
09:29AM 35.2189 -99.5439 271° West 428 493 38,000  Level Albuquerque Center
09:30AM 35.2206 -99.6900 271° West 428 493 38,000  Level Albuquerque Center
09:31AM 35.2228 -99.8369 271° West 430 495 38,000  Level Albuquerque Center
09:32AM 35.2236 -99.9828 270° West 428 493 38,000  Level Albuquerque Center
09:33AM 35.2258 -100.1294 271° West 430 495 38,000  Level Albuquerque Center
09:34AM 35.2281 -100.2767 271° West 430 495 38,000  Level Albuquerque Center
09:35AM 35.2264 -100.4239 269° West 432 497 38,000  Level Albuquerque Center
09:36AM 35.2281 -100.5711 271° West 432 497 38,000  Level Albuquerque Center
09:37AM 35.2303 -100.7386 271° West 433 498 38,000  Level Albuquerque Center
09:38AM 35.2300 -100.8844 270° West 431 496 38,000  Level Albuquerque Center
09:39AM 35.2300 -101.0317 270° West 433 498 38,000  Level Albuquerque Center
09:40AM 35.2303 -101.1764 270° West 430 495 38,000  Level Albuquerque Center
09:41AM 35.2300 -101.3336 270° West 426 490 38,000  Level Albuquerque Center
09:42AM 35.2325 -101.4800 271° West 428 493 38,000  Level Albuquerque Center
09:43AM 35.2319 -101.6239 270° West 424 488 38,000  Level Albuquerque Center
09:44AM 35.2272 -101.7775 268° West 424 488 38,000  Level Albuquerque Center
09:45AM 35.2267 -101.9208 270° West 421 484 38,000  Level Albuquerque Center
09:46AM 35.2247 -102.0525 269° West 421 484 38,000  Level Albuquerque Center
09:47AM 35.2233 -102.1961 269° West 422 486 38,000  Level Albuquerque Center
09:48AM 35.2222 -102.3392 269° West 422 486 38,000  Level Albuquerque Center
09:49AM 35.2203 -102.5117 269° West 424 488 38,000  Level Albuquerque Center
09:50AM 35.2194 -102.6550 270° West 424 488 38,000  Level Albuquerque Center
09:51AM 35.2183 -102.7978 269° West 422 486 38,000  Level Albuquerque Center
09:52AM 35.2167 -102.9411 269° West 422 486 38,000  Level Albuquerque Center
09:53AM 35.2153 -103.0781 269° West 421 484 38,000  Level Albuquerque Center
09:54AM 35.2133 -103.2219 269° West 420 483 38,000  Level Albuquerque Center
09:56AM 35.2097 -103.3642 268° West 417 480 38,000  Level Albuquerque Center
09:57AM 35.2067 -103.5314 269° West 417 480 38,000  Level Albuquerque Center
09:58AM 35.2039 -103.6742 269° West 418 481 38,000  Level Albuquerque Center
09:59AM 35.2011 -103.8183 269° West 419 482 38,000  Level Albuquerque Center
10:00AM 35.1978 -103.9631 268° West 420 483 38,000  Level Albuquerque Center
10:01AM 35.1947 -104.1067 269° West 424 488 38,000  Level Albuquerque Center
10:02AM 35.1919 -104.2489 269° West 422 486 38,000  Level Albuquerque Center
10:03AM 35.1875 -104.3925 268° West 422 486 38,000  Level Albuquerque Center
10:04AM 35.1828 -104.5356 268° West 423 487 38,000  Level Albuquerque Center
10:05AM 35.1767 -104.6981 267° West 426 490 38,000  Level Albuquerque Center
10:06AM 35.1728 -104.8431 268° West 424 488 38,000  Level Albuquerque Center
10:07AM 35.1686 -104.9867 268° West 421 484 38,000  Level Albuquerque Center
10:08AM 35.1650 -105.1300 268° West 419 482 38,000  Level Albuquerque Center
10:09AM 35.1606 -105.2725 268° West 417 480 38,000  Level Albuquerque Center
10:10AM 35.1550 -105.4156 267° West 418 481 38,000  Level Albuquerque Center
10:11AM 35.1503 -105.5594 268° West 419 482 38,000  Level Albuquerque Center
10:12AM 35.1447 -105.7014 267° West 416 479 38,000  Level Albuquerque Center
10:13AM 35.1383 -105.8681 267° West 417 480 38,000  Level Albuquerque Center
10:14AM 35.1311 -106.0103 266° West 416 479 38,000  Level Albuquerque Center
10:15AM 35.1256 -106.1506 267° West 411 473 38,000  Level Albuquerque Center
10:16AM 35.1225 -106.2811 268° West 411 473 38,000  Level Albuquerque Center
10:17AM 35.1158 -106.4194 267° West 410 472 38,000  Level Albuquerque Center
10:18AM 35.1072 -106.5842 266° West 414 476 38,000  Level Albuquerque Center
10:19AM 35.1003 -106.7186 266° West 417 480 38,000  Level Albuquerque Center
10:20AM 35.0942 -106.8703 267° West 406 467 38,000  Level Albuquerque Center
10:21AM 35.0892 -107.0019 267° West 405 466 38,000  Level Albuquerque Center
10:22AM 35.0828 -107.1331 267° West 406 467 38,000  Level Albuquerque Center
10:23AM 35.0733 -107.2933 266° West 414 476 38,000  Level Albuquerque Center
10:24AM 35.0658 -107.4303 266° West 408 470 38,000  Level Albuquerque Center
10:25AM 35.0586 -107.5664 266° West 405 466 38,000  Level Albuquerque Center
10:26AM 35.0522 -107.7039 267° West 405 466 38,000  Level Albuquerque Center
10:27AM 35.0433 -107.8556 266° West 402 463 38,000  Level Albuquerque Center
10:28AM 35.0375 -107.9847 267° West 399 459 38,000 -480 Level Albuquerque Center
10:29AM 35.0286 -108.1364 266° West 400 460 37,100 -720 Descending Albuquerque Center
10:30AM 35.0217 -108.2653 266° West 399 459 36,600 -540 Descending Albuquerque Center
10:32AM 35.0128 -108.4167 266° West 400 460 36,000 -300 Descending Albuquerque Center
10:33AM 35.0053 -108.5478 266° West 403 464 36,000  Level Albuquerque Center
10:34AM 34.9964 -108.6800 265° West 406 467 36,000  Level Albuquerque Center
10:35AM 34.9875 -108.8358 266° West 411 473 36,000  Level Albuquerque Center
10:36AM 34.9786 -108.9694 265° West 412 474 36,000  Level Albuquerque Center
10:37AM 34.9683 -109.1278 266° West 417 480 36,000  Level Albuquerque Center
10:38AM 34.9317 -109.2539 251° West 413 475 36,000  Level Albuquerque Center
10:39AM 34.8800 -109.3972 246° West 414 476 36,000  Level Albuquerque Center
10:40AM 34.8353 -109.5164 245° Southwest 409 471 36,000  Level Albuquerque Center
10:41AM 34.7828 -109.6553 245° Southwest 405 466 36,000  Level Albuquerque Center
10:42AM 34.7386 -109.7747 246° West 405 466 36,000  Level Albuquerque Center
10:43AM 34.6869 -109.9142 246° West 405 466 36,000  Level Albuquerque Center
10:44AM 34.6442 -110.0322 246° West 401 461 36,000  Level Albuquerque Center
10:45AM 34.5939 -110.1742 247° West 409 471 36,000 -240 Level Albuquerque Center
10:46AM 34.5514 -110.2922 246° West 403 464 35,600 -1,440 Descending Albuquerque Center
10:47AM 34.4972 -110.4208 243° Southwest 390 449 33,100 -1,500 Descending Albuquerque Center
10:48AM 34.4606 -110.5303 248° West 397 457 32,600 -1,260 Descending Albuquerque Center
10:49AM 34.4147 -110.6475 245° Southwest 388 447 30,600 -2,220 Descending Albuquerque Center
10:50AM 34.3569 -110.7856 243° Southwest 386 444 28,100 -1,620 Descending Albuquerque Center
10:51AM 34.2892 -110.8817 230° Southwest 376 433 27,300 -1,380 Descending Albuquerque Center
10:52AM 34.2178 -110.9731 227° Southwest 374 430 25,300 -1,800 Descending Albuquerque Center
10:53AM 34.1486 -111.0614 227° Southwest 367 422 23,600 -1,920 Descending Albuquerque Center
10:54AM 34.0822 -111.1478 227° Southwest 357 411 21,400 -2,040 Descending Albuquerque Center
10:55AM 34.0181 -111.2300 227° Southwest 343 395 19,500 -1,920 Descending Albuquerque Center
10:56AM 33.9556 -111.3100 227° Southwest 332 382 17,500 -1,860 Descending Albuquerque Center
10:57AM 33.8814 -111.4047 227° Southwest 322 371 15,700 -1,620 Descending Albuquerque Center
10:58AM 33.8375 -111.4883 238° Southwest 297 342 14,200 -1,500 Descending Albuquerque Center
10:59AM 33.7942 -111.5706 238° Southwest 289 333 12,600 -1,560 Descending Albuquerque Center
11:00AM 33.7525 -111.6492 237° Southwest 279 321 11,000 -1,320 Descending Albuquerque Center
11:01AM 33.7114 -111.7267 237° Southwest 274 315 9,900 -480 Descending Albuquerque Center
11:03AM 33.6692 -111.8044 237° Southwest 275 316 10,000 -360 Climbing Albuquerque Center
11:04AM 33.6278 -111.8794 236° Southwest 270 311 9,200 -720 Descending Albuquerque Center
11:04AM 33.6000 -111.9333 238° Southwest 251 289 8,800 -720 Descending Phoenix TRACON
11:05AM 33.5667 -112.0000 239° Southwest 233 268 8,100 -1,020 Descending Phoenix TRACON
11:06AM 33.5333 -112.0667 239° Southwest 219 252 6,800 -1,500 Descending Phoenix TRACON
11:07AM 33.5333 -112.1333 270° West 231 266 5,200 -1,560 Descending Phoenix TRACON
11:08AM 33.5092 -112.1622 225° Southwest 244 281 4,500 -1,320 Descending Albuquerque Center
11:09AM 33.4500 -112.1525 172° South 220 253 3,200 -1,320 Descending Albuquerque Center
11:09AM 33.4500 -112.1167 90° East 190 219 2,500 -1,020 Descending Phoenix TRACON
11:10AM 33.4333 -112.0667 112° Southeast 153 176 1,700 -840 Descending Phoenix TRACON